Time;durP1;ratioP1;P1;durP2;ratioP2;P2;SDS_P1;SDS_P2;PMS_P1;PMS_P2;Temp;Humidity;BMP_temperature;BMP_pressure;BME280_temperature;BME280_humidity;BME280_pressure;Samples;Min_cycle;Max_cycle;Signal;HPM_P1;HPM_P2
2021/12/14 00:01:41;;;;;;;3.33;3.00;;;10.40;99.90;;;;;;4961128;28;20184;-88
2021/12/14 00:04:19;;;;;;;4.45;3.00;;;10.30;99.90;;;;;;4973596;28;20194;-78
2021/12/14 00:06:49;;;;;;;5.68;3.15;;;10.10;99.90;;;;;;4977705;28;20224;-85
2021/12/14 00:09:27;;;;;;;3.47;3.17;;;10.10;99.90;;;;;;4977572;28;20221;-88
2021/12/14 00:17:07;;;;;;;4.53;3.15;;;10.30;99.90;;;;;;4977601;28;20261;-88
2021/12/14 00:19:33;;;;;;;5.07;2.50;;;10.30;99.90;;;;;;4960109;28;20535;-80
2021/12/14 00:22:16;;;;;;;3.17;2.88;;;10.20;99.90;;;;;;4977503;28;20265;-82
2021/12/14 00:24:43;;;;;;;2.95;2.75;;;9.90;99.90;;;;;;4977151;28;20169;-84
2021/12/14 00:27:11;;;;;;;3.72;3.42;;;9.70;99.90;;;;;;4976250;28;20582;-86
2021/12/14 00:29:41;;;;;;;4.97;2.90;;;9.40;99.90;;;;;;4977788;28;20580;-83
2021/12/14 00:32:16;;;;;;;3.20;2.78;;;9.50;99.90;;;;;;4976947;28;21025;-81
2021/12/14 00:34:43;;;;;;;3.08;2.78;;;9.50;99.90;;;;;;4977283;28;20169;-87
2021/12/14 00:37:18;;;;;;;2.78;2.58;;;9.50;99.90;;;;;;4976061;28;20200;-77
2021/12/14 00:39:45;;;;;;;2.90;2.50;;;9.60;99.90;;;;;;4977079;28;20166;-80
2021/12/14 00:42:11;;;;;;;3.90;3.33;;;9.60;99.90;;;;;;4976888;28;20264;-88
2021/12/14 00:44:38;;;;;;;4.38;3.40;;;9.70;99.90;;;;;;4978790;28;20166;-87
2021/12/14 00:47:05;;;;;;;3.15;2.75;;;9.80;99.90;;;;;;4979275;28;20210;-79
2021/12/14 00:49:32;;;;;;;3.15;2.85;;;9.80;99.90;;;;;;4978314;28;20670;-78
2021/12/14 00:51:58;;;;;;;4.05;3.22;;;9.80;99.90;;;;;;4977867;28;20181;-88
2021/12/14 00:54:23;;;;;;;2.78;2.58;;;9.90;99.90;;;;;;4977284;28;20162;-87
2021/12/14 00:56:51;;;;;;;3.30;2.95;;;10.10;99.90;;;;;;4977098;28;20212;-89
2021/12/14 00:59:18;;;;;;;4.43;3.55;;;10.10;99.90;;;;;;4976490;28;20237;-87
2021/12/14 01:01:51;;;;;;;4.18;3.63;;;10.20;99.90;;;;;;4976741;28;20241;-81
2021/12/14 01:04:25;;;;;;;3.53;3.22;;;10.10;99.90;;;;;;4976697;28;20523;-82
2021/12/14 01:06:53;;;;;;;3.85;3.17;;;10.20;99.90;;;;;;4976494;28;20227;-80
2021/12/14 01:09:28;;;;;;;3.55;3.20;;;10.20;99.90;;;;;;4976380;28;20649;-87
2021/12/14 01:12:03;;;;;;;3.22;2.92;;;10.10;99.90;;;;;;4976838;28;20169;-88
2021/12/14 01:14:40;;;;;;;3.53;3.22;;;9.80;99.90;;;;;;4976609;28;20166;-82
2021/12/14 01:17:14;;;;;;;3.95;3.42;;;9.60;99.90;;;;;;4975977;28;20280;-88
2021/12/14 01:19:45;;;;;;;3.90;2.92;;;9.80;99.90;;;;;;4959239;28;20166;-88
2021/12/14 01:22:32;;;;;;;4.03;3.05;;;9.90;99.90;;;;;;4976104;28;20169;-88
2021/12/14 01:25:10;;;;;;;6.70;4.00;;;10.10;99.90;;;;;;4977217;28;20582;-89
2021/12/14 01:27:47;;;;;;;3.60;3.30;;;10.20;99.90;;;;;;4976444;28;20742;-88
2021/12/14 01:30:18;;;;;;;4.00;3.60;;;10.30;99.90;;;;;;4976284;28;20178;-79
2021/12/14 01:32:46;;;;;;;4.88;3.97;;;10.20;99.90;;;;;;4976106;28;20169;-81
2021/12/14 01:35:14;;;;;;;5.88;4.18;;;10.00;99.90;;;;;;4975994;28;20169;-88
2021/12/14 01:37:58;;;;;;;3.85;3.28;;;10.00;99.90;;;;;;4975623;28;20586;-78
2021/12/14 01:43:09;;;;;;;5.47;4.35;;;10.20;99.90;;;;;;4975821;28;20189;-77
2021/12/14 01:45:36;;;;;;;6.32;4.80;;;10.30;99.90;;;;;;4975377;28;20229;-81
2021/12/14 01:48:04;;;;;;;5.85;4.32;;;10.40;99.90;;;;;;4974921;28;20244;-78
2021/12/14 01:50:40;;;;;;;5.93;5.07;;;10.40;99.90;;;;;;4975410;28;20178;-89
2021/12/14 01:53:06;;;;;;;6.05;5.07;;;10.10;99.90;;;;;;4975341;28;20165;-77
2021/12/14 01:55:36;;;;;;;4.80;4.40;;;10.10;99.90;;;;;;4975264;28;20177;-82
2021/12/14 01:58:05;;;;;;;5.20;4.70;;;10.00;99.90;;;;;;4975376;28;20189;-83
2021/12/14 02:00:43;;;;;;;5.57;5.07;;;10.10;99.90;;;;;;4975115;28;20261;-80
2021/12/14 02:03:12;;;;;;;7.55;5.15;;;10.00;99.90;;;;;;4958819;28;20249;-89
2021/12/14 02:05:45;;;;;;;5.22;4.72;;;10.00;99.90;;;;;;4958272;28;20633;-86
2021/12/14 02:08:24;;;;;;;5.25;4.63;;;10.00;99.90;;;;;;4976034;28;20198;-88
2021/12/14 02:10:51;;;;;;;5.72;4.80;;;10.00;99.90;;;;;;4976187;28;20198;-88
2021/12/14 02:13:47;;;;;;;7.18;5.78;;;10.10;99.90;;;;;;4975673;28;20597;-84
2021/12/14 02:16:17;;;;;;;5.80;5.28;;;10.00;99.90;;;;;;4975531;28;20170;-78
2021/12/14 02:18:45;;;;;;;6.55;5.45;;;10.00;99.90;;;;;;4975858;28;20525;-87
2021/12/14 02:21:12;;;;;;;6.05;5.45;;;10.00;99.90;;;;;;4975547;28;20170;-88
2021/12/14 02:23:40;;;;;;;9.27;5.75;;;10.10;99.90;;;;;;4974749;28;20166;-78
2021/12/14 02:26:09;;;;;;;11.90;5.78;;;10.20;99.90;;;;;;4957691;28;20693;-81
2021/12/14 02:28:35;;;;;;;6.53;5.30;;;9.80;99.90;;;;;;4957867;28;20192;-89
2021/12/14 02:31:03;;;;;;;8.27;5.90;;;9.90;99.90;;;;;;4979928;28;20166;-88
2021/12/14 02:33:34;;;;;;;8.63;5.57;;;9.90;99.90;;;;;;4985778;28;20169;-88
2021/12/14 02:36:04;;;;;;;7.55;6.07;;;9.90;99.90;;;;;;4986400;28;20700;-88
2021/12/14 02:38:29;;;;;;;7.05;5.47;;;9.90;99.90;;;;;;4987726;28;20188;-81
2021/12/14 02:41:05;;;;;;;8.25;6.13;;;9.70;99.90;;;;;;4979006;28;20197;-80
2021/12/14 02:43:31;;;;;;;8.23;6.90;;;9.60;99.90;;;;;;4974864;28;20213;-79
2021/12/14 02:46:15;;;;;;;7.68;6.20;;;9.70;99.90;;;;;;4974537;28;20178;-89
2021/12/14 02:48:47;;;;;;;9.52;6.05;;;9.60;99.90;;;;;;4974845;28;20206;-81
2021/12/14 02:51:20;;;;;;;7.50;6.75;;;9.70;99.90;;;;;;4978379;28;20162;-86
2021/12/14 02:53:51;;;;;;;7.60;6.78;;;9.80;99.90;;;;;;4978265;28;20162;-84
2021/12/14 02:56:20;;;;;;;11.55;7.97;;;9.60;99.90;;;;;;4978602;28;20236;-87
2021/12/14 02:58:48;;;;;;;9.65;7.82;;;9.50;99.90;;;;;;4978566;28;20249;-87
2021/12/14 03:01:16;;;;;;;8.93;8.02;;;9.50;99.90;;;;;;4978587;28;20309;-88
2021/12/14 03:03:42;;;;;;;9.32;7.18;;;9.50;99.90;;;;;;4986051;28;20258;-78
2021/12/14 03:06:11;;;;;;;8.43;7.60;;;9.60;99.90;;;;;;4977615;28;20185;-77
2021/12/14 03:08:45;;;;;;;9.32;7.50;;;9.60;99.90;;;;;;4997511;28;20225;-80
2021/12/14 03:11:11;;;;;;;11.20;7.88;;;9.60;99.90;;;;;;5000687;28;20166;-83
2021/12/14 03:13:51;;;;;;;12.20;8.98;;;9.60;99.90;;;;;;5001512;28;20170;-81
2021/12/14 03:16:31;;;;;;;11.95;8.02;;;9.50;99.90;;;;;;5001102;28;20181;-82
2021/12/14 03:18:58;;;;;;;10.73;7.82;;;9.70;99.90;;;;;;4986393;28;20201;-87
2021/12/14 03:21:31;;;;;;;9.80;7.63;;;9.70;99.90;;;;;;4978301;28;20205;-85
2021/12/14 03:24:04;;;;;;;8.75;7.80;;;9.70;99.90;;;;;;4960393;28;20204;-81
2021/12/14 03:26:33;;;;;;;9.95;7.50;;;9.90;99.90;;;;;;4960794;28;20205;-82
2021/12/14 03:29:07;;;;;;;9.73;7.10;;;9.80;99.90;;;;;;4960882;28;20166;-79
2021/12/14 03:31:36;;;;;;;8.98;7.93;;;9.70;99.90;;;;;;4960756;28;20173;-84
2021/12/14 03:34:19;;;;;;;17.20;8.38;;;9.70;99.90;;;;;;4978099;28;20181;-88
2021/12/14 03:36:53;;;;;;;8.40;7.13;;;9.50;99.90;;;;;;4977941;28;20550;-80
2021/12/14 03:39:32;;;;;;;8.50;6.90;;;9.50;99.90;;;;;;4977846;28;20205;-79
2021/12/14 03:42:05;;;;;;;8.93;7.43;;;9.60;99.90;;;;;;4977856;28;20721;-85
2021/12/14 03:44:44;;;;;;;10.82;6.95;;;9.80;99.90;;;;;;4978026;28;20174;-86
2021/12/14 03:47:20;;;;;;;10.90;7.32;;;9.70;99.90;;;;;;4977650;28;20216;-88
2021/12/14 03:49:53;;;;;;;8.60;7.45;;;9.70;99.90;;;;;;4960298;28;20181;-84
2021/12/14 03:52:23;;;;;;;9.27;8.02;;;9.80;99.90;;;;;;4977387;28;20173;-79
2021/12/14 03:54:49;;;;;;;9.23;7.63;;;9.70;99.90;;;;;;4977451;28;20166;-88
2021/12/14 03:57:15;;;;;;;8.43;7.15;;;9.80;99.90;;;;;;4960128;28;20668;-88
2021/12/14 03:59:43;;;;;;;13.55;8.40;;;9.80;99.90;;;;;;4977622;28;20266;-78
2021/12/14 04:02:12;;;;;;;10.60;7.50;;;9.90;99.90;;;;;;4976049;28;20173;-85
2021/12/14 04:04:43;;;;;;;16.35;7.43;;;9.70;99.90;;;;;;4977481;28;20166;-88
2021/12/14 04:07:14;;;;;;;9.63;7.60;;;9.60;99.90;;;;;;4977549;28;20218;-82
2021/12/14 04:09:41;;;;;;;8.07;6.88;;;9.50;99.90;;;;;;4979652;28;20170;-85
2021/12/14 04:12:11;;;;;;;9.65;7.28;;;9.50;99.90;;;;;;4986314;28;20177;-77
2021/12/14 04:14:42;;;;;;;10.52;8.10;;;9.60;99.90;;;;;;4975720;28;20598;-86
2021/12/14 04:17:10;;;;;;;9.90;8.27;;;9.60;99.90;;;;;;4983254;28;20656;-84
2021/12/14 04:19:36;;;;;;;13.75;8.07;;;9.50;99.90;;;;;;4981159;28;20167;-80
2021/12/14 04:22:07;;;;;;;11.30;7.97;;;9.50;99.90;;;;;;4978579;28;20235;-80
2021/12/14 04:24:36;;;;;;;9.05;7.60;;;9.50;99.90;;;;;;4977426;28;20177;-79
2021/12/14 04:27:07;;;;;;;10.13;7.72;;;9.60;99.90;;;;;;4977594;28;20255;-87
2021/12/14 04:29:33;;;;;;;9.60;7.65;;;9.60;99.90;;;;;;4977691;28;20166;-88
2021/12/14 04:31:59;;;;;;;12.30;8.07;;;9.70;99.90;;;;;;4977516;28;20170;-80
2021/12/14 04:34:28;;;;;;;10.50;8.00;;;9.60;99.90;;;;;;4979828;28;20174;-79
2021/12/14 04:36:55;;;;;;;11.65;8.38;;;9.70;99.90;;;;;;4985019;28;20619;-87
2021/12/14 04:53:10;;;;;;;8.32;7.10;;;9.50;99.90;;;;;;4984052;28;20563;-78
2021/12/14 04:55:42;;;;;;;9.60;7.03;;;9.40;99.90;;;;;;4983811;28;20166;-87
2021/12/14 04:58:08;;;;;;;10.50;7.32;;;9.50;99.90;;;;;;4984661;28;20197;-83
2021/12/14 05:00:39;;;;;;;8.95;7.15;;;9.70;99.90;;;;;;4984371;28;20170;-77
2021/12/14 05:03:15;;;;;;;11.15;8.23;;;9.60;99.90;;;;;;4978531;28;20177;-86
2021/12/14 05:05:48;;;;;;;9.63;7.78;;;9.80;99.90;;;;;;4977259;28;20174;-76
2021/12/14 05:11:00;;;;;;;12.63;8.05;;;9.70;99.90;;;;;;4977974;28;20180;-78
2021/12/14 05:13:33;;;;;;;10.35;8.32;;;9.60;99.90;;;;;;4977054;28;20694;-88
2021/12/14 05:15:59;;;;;;;10.82;8.18;;;9.70;99.90;;;;;;4977691;28;20170;-89
2021/12/14 05:18:24;;;;;;;12.85;9.15;;;9.70;99.90;;;;;;4977284;28;20196;-79
2021/12/14 05:20:51;;;;;;;13.60;8.68;;;9.90;99.90;;;;;;4977015;28;20200;-79
2021/12/14 05:23:33;;;;;;;10.98;7.82;;;10.00;99.90;;;;;;4977004;28;20173;-87
2021/12/14 05:26:02;;;;;;;12.18;8.40;;;10.00;99.90;;;;;;4984667;28;20162;-82
2021/12/14 05:28:29;;;;;;;18.83;10.65;;;10.10;99.90;;;;;;4983342;28;20198;-82
2021/12/14 05:30:58;;;;;;;15.80;10.35;;;10.00;99.90;;;;;;4977307;28;20189;-86
2021/12/14 05:33:31;;;;;;;13.70;9.45;;;10.10;99.90;;;;;;4977054;28;20172;-87
2021/12/14 05:36:01;;;;;;;13.60;8.85;;;10.30;99.90;;;;;;4977315;28;20624;-88
2021/12/14 05:38:44;;;;;;;12.88;9.65;;;10.10;99.90;;;;;;4976535;28;20686;-86
2021/12/14 05:43:05;;;;;;;15.48;11.00;;;9.80;99.90;;;;;;4975299;28;20221;-87
2021/12/14 05:43:58;;;;;;;14.93;10.85;;;9.70;99.90;;;;;;4975589;28;20644;-84
2021/12/14 05:46:25;;;;;;;17.35;10.45;;;9.60;99.90;;;;;;4975588;28;20233;-84
2021/12/14 05:49:01;;;;;;;17.88;10.38;;;9.60;99.90;;;;;;4975888;28;20162;-88
2021/12/14 05:51:31;;;;;;;14.60;10.15;;;9.70;99.90;;;;;;4975708;28;20162;-87
2021/12/14 05:53:57;;;;;;;17.17;10.80;;;9.90;99.90;;;;;;4978214;28;20176;-78
2021/12/14 05:56:26;;;;;;;20.70;10.80;;;9.90;99.90;;;;;;4961231;28;20241;-85
2021/12/14 05:58:53;;;;;;;16.20;11.63;;;9.80;99.90;;;;;;4961415;28;20532;-88
2021/12/14 06:01:22;;;;;;;16.63;10.90;;;9.70;99.90;;;;;;4979248;28;20162;-78
2021/12/14 06:03:55;;;;;;;16.13;10.60;;;9.70;99.90;;;;;;4977456;28;20169;-84
2021/12/14 06:06:32;;;;;;;25.90;11.48;;;9.70;99.90;;;;;;4977589;28;20201;-81
2021/12/14 06:09:15;;;;;;;20.20;12.77;;;9.50;99.90;;;;;;4977465;28;20314;-85
2021/12/14 06:11:43;;;;;;;20.48;12.18;;;9.60;99.90;;;;;;4978106;28;20174;-83
2021/12/14 06:14:20;;;;;;;23.60;11.75;;;9.70;99.90;;;;;;4978161;28;20173;-88
2021/12/14 06:16:48;;;;;;;23.45;13.18;;;9.60;99.90;;;;;;4977528;28;20189;-82
2021/12/14 06:19:30;;;;;;;20.50;12.45;;;9.70;99.90;;;;;;4978080;28;20169;-83
2021/12/14 06:22:10;;;;;;;24.67;13.00;;;9.80;99.90;;;;;;4979687;28;20162;-89
2021/12/14 06:24:40;;;;;;;23.92;13.43;;;9.90;99.90;;;;;;4959915;28;20177;-78
2021/12/14 06:27:12;;;;;;;22.90;12.57;;;9.80;99.90;;;;;;4976954;28;20214;-76
2021/12/14 06:29:46;;;;;;;24.30;12.68;;;9.80;99.90;;;;;;4977055;28;20166;-82
2021/12/14 06:32:21;;;;;;;26.48;13.48;;;9.80;99.90;;;;;;4976249;28;20256;-84
2021/12/14 06:34:53;;;;;;;22.00;12.23;;;9.70;99.90;;;;;;4975976;28;20166;-86
2021/12/14 06:40:16;;;;;;;24.73;13.35;;;9.70;99.90;;;;;;4956035;28;20592;-78
2021/12/14 06:42:45;;;;;;;28.15;14.25;;;9.80;99.90;;;;;;4976309;28;20240;-76
2021/12/14 06:45:36;;;;;;;30.90;12.60;;;9.80;99.90;;;;;;4976017;28;20200;-80
2021/12/14 06:48:07;;;;;;;25.88;13.52;;;9.70;99.90;;;;;;4975559;28;20247;-85
2021/12/14 06:50:42;;;;;;;25.55;13.75;;;9.70;99.90;;;;;;4977665;28;20231;-87
2021/12/14 06:53:14;;;;;;;24.63;13.55;;;9.70;99.90;;;;;;4958918;28;20317;-77
2021/12/14 06:55:42;;;;;;;28.40;14.35;;;9.70;99.90;;;;;;4975102;28;20516;-81
2021/12/14 06:58:16;;;;;;;22.90;12.80;;;9.80;99.90;;;;;;4975941;28;20178;-85
2021/12/14 07:00:49;;;;;;;22.00;12.88;;;9.90;99.90;;;;;;4975366;28;20174;-84
2021/12/14 07:03:15;;;;;;;25.67;14.05;;;9.80;99.90;;;;;;4973607;28;20628;-77
2021/12/14 07:05:48;;;;;;;23.05;13.48;;;9.80;99.90;;;;;;4976179;28;20166;-86
2021/12/14 07:08:22;;;;;;;34.17;15.80;;;9.90;99.90;;;;;;4975431;28;20698;-85
2021/12/14 07:10:48;;;;;;;28.15;14.77;;;9.80;99.90;;;;;;4976717;28;20260;-79
2021/12/14 07:13:24;;;;;;;31.30;15.73;;;9.70;99.90;;;;;;4978842;28;20170;-78
2021/12/14 07:15:51;;;;;;;30.10;14.77;;;9.50;99.90;;;;;;4965386;28;20265;-79
2021/12/14 07:18:22;;;;;;;31.85;15.82;;;9.50;99.90;;;;;;4983869;28;20213;-79
2021/12/14 07:20:49;;;;;;;34.30;16.10;;;9.50;99.90;;;;;;4984057;28;20170;-80
2021/12/14 07:23:28;;;;;;;30.67;14.57;;;9.70;99.90;;;;;;4986106;28;20241;-77
2021/12/14 07:26:11;;;;;;;34.80;15.85;;;9.50;99.90;;;;;;4961169;28;20174;-80
2021/12/14 07:28:40;;;;;;;36.47;16.48;;;9.50;99.90;;;;;;4977195;28;20288;-78
2021/12/14 07:31:40;;;;;;;28.95;15.30;;;9.50;99.90;;;;;;4978074;28;20166;-83
2021/12/14 07:34:06;;;;;;;37.00;16.20;;;9.50;99.90;;;;;;4969906;28;20174;-82
2021/12/14 07:36:36;;;;;;;39.20;16.77;;;9.60;99.90;;;;;;4983628;28;20173;-82
2021/12/14 07:39:09;;;;;;;33.03;15.48;;;9.50;99.90;;;;;;4982384;28;20166;-78
2021/12/14 07:41:42;;;;;;;35.47;16.20;;;9.50;99.90;;;;;;4980204;28;20209;-77
2021/12/14 07:44:26;;;;;;;34.30;17.13;;;9.50;99.90;;;;;;4980757;28;20166;-77
2021/12/14 07:47:08;;;;;;;37.60;16.90;;;9.60;99.90;;;;;;4982162;28;20224;-77
2021/12/14 07:49:42;;;;;;;37.47;16.92;;;9.80;99.90;;;;;;4984234;28;20170;-79
2021/12/14 07:52:07;;;;;;;34.28;16.05;;;9.90;99.90;;;;;;4983817;28;20197;-78
2021/12/14 07:54:37;;;;;;;36.05;17.70;;;9.70;99.90;;;;;;4982164;28;20245;-88
2021/12/14 07:57:24;;;;;;;38.08;16.48;;;9.70;99.90;;;;;;4959748;28;20301;-86
2021/12/14 07:59:57;;;;;;;34.40;16.73;;;9.70;99.90;;;;;;4977232;28;20170;-83
2021/12/14 08:02:37;;;;;;;34.90;16.00;;;9.80;99.90;;;;;;4976866;28;20204;-82
2021/12/14 08:05:23;;;;;;;38.67;17.88;;;9.80;99.90;;;;;;4976981;28;20181;-78
2021/12/14 08:07:56;;;;;;;42.90;17.83;;;9.70;99.90;;;;;;4977292;28;20211;-82
2021/12/14 08:10:29;;;;;;;36.97;16.50;;;9.90;99.90;;;;;;4972151;28;20177;-80
2021/12/14 08:12:58;;;;;;;37.28;16.90;;;10.00;99.90;;;;;;4984294;28;20233;-79
2021/12/14 08:15:30;;;;;;;33.30;17.55;;;9.90;99.90;;;;;;4976266;28;20170;-85
2021/12/14 08:18:12;;;;;;;37.20;17.38;;;9.70;99.90;;;;;;4974842;28;20252;-84
2021/12/14 08:20:53;;;;;;;37.03;16.60;;;9.60;99.90;;;;;;4974947;28;20513;-77
2021/12/14 08:23:23;;;;;;;36.13;17.10;;;9.70;99.90;;;;;;4976555;28;20193;-79
2021/12/14 08:25:57;;;;;;;39.65;17.73;;;9.70;99.90;;;;;;4977049;28;20249;-85
2021/12/14 08:28:23;;;;;;;35.40;16.52;;;9.50;99.90;;;;;;4975210;28;20268;-80
2021/12/14 08:31:02;;;;;;;33.28;16.30;;;9.70;99.90;;;;;;4975410;28;20628;-86
2021/12/14 08:33:30;;;;;;;31.98;15.77;;;9.90;99.90;;;;;;4975081;28;20206;-83
2021/12/14 08:36:00;;;;;;;35.58;16.65;;;10.00;99.90;;;;;;4979734;28;20237;-85
2021/12/14 08:38:27;;;;;;;33.58;15.80;;;10.10;99.90;;;;;;4981019;28;20204;-80
2021/12/14 08:40:59;;;;;;;35.60;15.73;;;10.00;99.90;;;;;;4981151;28;20165;-84
2021/12/14 08:43:33;;;;;;;34.17;16.27;;;10.00;99.90;;;;;;4980047;28;20540;-83
2021/12/14 08:46:09;;;;;;;37.47;17.63;;;10.00;99.90;;;;;;4979456;28;20169;-85
2021/12/14 08:48:45;;;;;;;38.78;16.40;;;9.90;99.90;;;;;;4979341;28;20664;-84
2021/12/14 08:51:27;;;;;;;33.53;15.55;;;10.00;99.90;;;;;;4996050;28;20196;-81
2021/12/14 08:54:08;;;;;;;30.73;15.50;;;10.00;99.90;;;;;;4982846;28;20178;-80
2021/12/14 08:56:38;;;;;;;31.95;15.80;;;9.90;99.90;;;;;;4978816;28;20177;-86
2021/12/14 08:59:07;;;;;;;28.38;14.95;;;9.90;99.90;;;;;;4979804;28;20312;-85
2021/12/14 09:01:33;;;;;;;36.67;15.95;;;9.80;99.90;;;;;;4981359;28;20205;-81
2021/12/14 09:04:23;;;;;;;31.73;15.50;;;9.90;99.90;;;;;;4977009;28;20162;-81
2021/12/14 09:06:54;;;;;;;33.60;15.93;;;10.00;99.90;;;;;;4988453;28;20312;-83
2021/12/14 09:09:22;;;;;;;36.72;16.55;;;10.20;99.90;;;;;;4979043;28;20178;-85
2021/12/14 09:11:56;;;;;;;38.88;16.75;;;10.20;99.90;;;;;;4977920;28;20305;-86
2021/12/14 09:14:22;;;;;;;29.17;16.27;;;10.30;99.90;;;;;;4975027;28;20290;-82
2021/12/14 09:16:54;;;;;;;40.03;17.45;;;10.40;99.90;;;;;;4958499;28;20240;-78
2021/12/14 09:19:45;;;;;;;31.15;16.10;;;10.40;99.90;;;;;;4976444;28;20166;-85
2021/12/14 09:22:18;;;;;;;36.47;17.25;;;10.40;99.90;;;;;;4977242;28;20254;-83
2021/12/14 09:24:47;;;;;;;34.05;16.85;;;10.30;99.90;;;;;;4976323;28;20177;-78
2021/12/14 09:27:20;;;;;;;36.30;16.13;;;10.50;99.90;;;;;;4975516;28;20209;-77
2021/12/14 09:29:46;;;;;;;27.92;15.10;;;10.50;99.90;;;;;;4974859;28;20185;-83
2021/12/14 09:32:17;;;;;;;32.00;17.02;;;10.40;99.90;;;;;;4975896;28;20194;-77
2021/12/14 09:34:43;;;;;;;35.22;15.90;;;10.60;99.90;;;;;;4975081;28;20244;-78
2021/12/14 09:37:11;;;;;;;35.28;15.40;;;10.80;99.90;;;;;;4974548;28;20225;-85
2021/12/14 09:39:43;;;;;;;28.80;15.20;;;11.00;99.90;;;;;;4975087;28;20628;-76
2021/12/14 09:42:13;;;;;;;32.78;15.55;;;10.80;99.90;;;;;;4975548;28;20182;-81
2021/12/14 09:44:39;;;;;;;30.38;16.08;;;10.80;99.90;;;;;;4975718;28;20658;-80
2021/12/14 09:47:12;;;;;;;38.08;16.23;;;10.60;99.90;;;;;;4975537;28;20214;-81
2021/12/14 09:49:39;;;;;;;30.33;15.50;;;10.70;99.90;;;;;;4975708;28;20596;-77
2021/12/14 09:52:09;;;;;;;27.23;15.25;;;10.70;99.90;;;;;;4957646;28;20236;-77
2021/12/14 09:54:36;;;;;;;33.60;15.25;;;10.80;99.90;;;;;;4975281;28;20181;-81
2021/12/14 09:57:07;;;;;;;37.45;16.17;;;11.00;99.90;;;;;;4964240;28;20838;-81
2021/12/14 09:59:34;;;;;;;32.17;15.43;;;10.80;99.90;;;;;;4955349;28;20171;-83
2021/12/14 10:02:06;;;;;;;25.98;15.00;;;10.60;99.90;;;;;;4947505;28;20166;-87
2021/12/14 10:04:38;;;;;;;29.08;16.73;;;10.70;99.90;;;;;;4975292;28;20718;-90
2021/12/14 10:07:08;;;;;;;31.48;14.98;;;10.60;99.90;;;;;;4974394;28;20252;-81
2021/12/14 10:09:39;;;;;;;28.08;15.70;;;10.80;99.90;;;;;;4974695;28;20174;-76
2021/12/14 10:14:43;;;;;;;33.03;15.73;;;10.90;99.90;;;;;;4974752;28;20188;-83
2021/12/14 10:17:12;;;;;;;35.35;18.45;;;11.10;99.90;;;;;;4977377;28;20206;-78
2021/12/14 10:19:39;;;;;;;42.33;16.10;;;11.00;99.90;;;;;;4978888;28;20161;-86
2021/12/14 10:22:15;;;;;;;35.35;14.57;;;10.90;99.90;;;;;;4978292;28;20212;-79
2021/12/14 10:24:41;;;;;;;32.35;15.93;;;10.90;99.90;;;;;;4978511;28;20162;-82
2021/12/14 10:27:14;;;;;;;34.63;15.13;;;11.10;99.90;;;;;;4983227;28;20218;-79
2021/12/14 10:29:40;;;;;;;34.60;16.33;;;11.40;99.90;;;;;;4986906;28;20154;-77
2021/12/14 10:32:16;;;;;;;66.70;18.75;;;11.30;99.90;;;;;;4986831;28;20174;-77
2021/12/14 10:34:46;;;;;;;35.08;15.70;;;11.30;99.90;;;;;;4985101;28;20169;-77
2021/12/14 10:37:21;;;;;;;41.63;16.05;;;11.20;99.90;;;;;;4979104;28;20200;-78
2021/12/14 10:45:13;;;;;;;33.08;14.75;;;11.10;99.90;;;;;;4975862;28;20726;-78
2021/12/14 10:47:41;;;;;;;26.42;14.90;;;11.20;99.90;;;;;;4974923;28;20221;-78
2021/12/14 10:50:11;;;;;;;27.13;15.02;;;11.20;99.90;;;;;;4975327;28;20158;-76
2021/12/14 10:52:40;;;;;;;36.05;16.35;;;11.20;99.90;;;;;;4978250;28;20518;-78
2021/12/14 10:55:20;;;;;;;30.42;15.68;;;11.20;99.90;;;;;;4978570;28;20169;-85
2021/12/14 10:57:47;;;;;;;32.08;15.30;;;10.90;99.90;;;;;;4977572;28;20197;-77
2021/12/14 11:00:43;;;;;;;30.05;15.32;;;11.10;99.90;;;;;;4978322;28;20181;-83
2021/12/14 11:03:17;;;;;;;27.45;14.70;;;11.10;99.90;;;;;;4978460;28;20162;-79
2021/12/14 11:05:47;;;;;;;27.90;14.98;;;11.10;99.90;;;;;;4978786;28;20178;-78
2021/12/14 11:08:58;;;;;;;38.20;15.80;;;11.10;99.90;;;;;;4977914;28;20422;-89
2021/12/14 11:11:13;;;;;;;39.47;17.25;;;11.30;99.90;;;;;;4974918;28;20174;-81
2021/12/14 11:13:43;;;;;;;34.13;16.33;;;11.30;99.90;;;;;;4980100;28;20186;-78
2021/12/14 11:16:16;;;;;;;31.98;16.33;;;11.40;99.90;;;;;;4980550;28;20174;-76
2021/12/14 11:18:44;;;;;;;36.13;15.65;;;11.50;99.90;;;;;;4995263;28;20186;-77
2021/12/14 11:21:13;;;;;;;31.48;17.02;;;11.40;99.90;;;;;;4982030;28;20324;-79
2021/12/14 11:23:43;;;;;;;34.70;16.77;;;11.20;99.90;;;;;;4986828;28;20182;-79
2021/12/14 11:26:21;;;;;;;36.50;17.13;;;11.30;99.90;;;;;;4981848;28;20176;-85
2021/12/14 11:28:54;;;;;;;42.00;18.50;;;11.30;99.90;;;;;;4995824;28;20179;-78
2021/12/14 11:31:25;;;;;;;30.42;16.63;;;11.10;99.90;;;;;;4980393;28;20257;-80
2021/12/14 11:33:57;;;;;;;32.17;15.45;;;11.30;99.90;;;;;;4980277;28;20175;-83
2021/12/14 11:36:25;;;;;;;28.13;15.27;;;11.60;99.90;;;;;;4980742;28;20261;-86
2021/12/14 11:38:56;;;;;;;28.05;16.25;;;11.50;99.90;;;;;;4981320;28;20188;-79
2021/12/14 11:41:31;;;;;;;34.92;15.73;;;11.70;99.90;;;;;;4980092;28;20276;-83
2021/12/14 11:44:11;;;;;;;40.47;18.20;;;11.90;99.90;;;;;;4979476;28;20176;-84
2021/12/14 11:47:41;;;;;;;35.17;16.30;;;11.90;99.90;;;;;;4980171;28;20574;-91
2021/12/14 11:50:22;;;;;;;29.92;16.45;;;11.70;99.90;;;;;;4980441;28;20193;-81
2021/12/14 11:52:50;;;;;;;25.35;13.82;;;11.40;99.90;;;;;;4979762;28;20180;-87
2021/12/14 11:55:45;;;;;;;36.88;16.98;;;11.20;99.90;;;;;;4979725;28;20174;-86
2021/12/14 11:58:19;;;;;;;30.25;16.35;;;11.30;99.90;;;;;;4977843;28;20201;-84
2021/12/14 12:00:54;;;;;;;30.75;16.90;;;11.50;99.90;;;;;;4992742;28;20173;-84
2021/12/14 12:03:27;;;;;;;30.38;16.83;;;11.70;99.90;;;;;;4978364;28;20257;-82
2021/12/14 12:06:14;;;;;;;32.30;16.80;;;11.70;99.90;;;;;;4977695;28;20531;-77
2021/12/14 12:11:38;;;;;;;31.88;16.50;;;11.90;99.90;;;;;;4977994;28;20245;-85
2021/12/14 12:14:20;;;;;;;47.22;16.40;;;11.80;99.90;;;;;;4977668;28;20568;-77
2021/12/14 12:16:46;;;;;;;28.40;14.75;;;11.70;99.90;;;;;;4979288;28;20256;-85
2021/12/14 12:19:17;;;;;;;30.75;16.17;;;11.80;99.90;;;;;;4984768;28;20177;-84
2021/12/14 12:21:45;;;;;;;28.50;15.70;;;11.90;99.90;;;;;;4991813;28;20181;-83
2021/12/14 12:24:49;;;;;;;37.28;15.68;;;12.00;99.90;;;;;;4990448;28;20178;-85
2021/12/14 12:27:23;;;;;;;34.88;16.08;;;12.00;99.90;;;;;;4988950;28;20256;-85
2021/12/14 12:30:06;;;;;;;32.33;15.68;;;12.00;99.90;;;;;;4981333;28;20648;-85
2021/12/14 12:32:32;;;;;;;27.85;15.25;;;11.80;99.90;;;;;;4977842;28;20176;-80
2021/12/14 12:34:58;;;;;;;26.83;15.38;;;11.60;99.90;;;;;;4977003;28;20163;-83
2021/12/14 12:37:40;;;;;;;25.65;15.32;;;11.50;99.90;;;;;;4976852;28;20217;-82
2021/12/14 12:40:12;;;;;;;26.98;15.05;;;11.60;99.90;;;;;;4977017;28;20158;-83
2021/12/14 12:42:39;;;;;;;31.60;15.77;;;11.50;99.90;;;;;;4976874;28;20223;-84
2021/12/14 12:45:23;;;;;;;31.45;15.27;;;11.70;99.90;;;;;;4977843;28;20208;-83
2021/12/14 12:47:49;;;;;;;34.00;16.15;;;11.80;99.90;;;;;;4977732;28;20217;-79
2021/12/14 12:50:15;;;;;;;29.00;15.60;;;11.80;99.90;;;;;;4977524;28;20309;-80
2021/12/14 12:52:41;;;;;;;30.85;15.85;;;11.60;99.90;;;;;;4976462;28;20526;-77
2021/12/14 12:55:14;;;;;;;36.40;17.80;;;11.40;99.90;;;;;;4990903;28;20162;-77
2021/12/14 12:57:53;;;;;;;24.17;14.98;;;11.50;99.90;;;;;;4977493;28;20596;-76
2021/12/14 13:00:37;;;;;;;32.38;16.00;;;11.60;99.90;;;;;;4979247;28;20188;-79
2021/12/14 13:03:16;;;;;;;30.48;15.02;;;11.30;99.90;;;;;;4979290;28;20244;-79
2021/12/14 13:05:56;;;;;;;27.23;15.85;;;11.40;99.90;;;;;;4978778;28;20165;-79
2021/12/14 13:08:28;;;;;;;37.38;16.65;;;11.30;99.90;;;;;;4979224;28;20311;-83
2021/12/14 13:11:18;;;;;;;44.90;17.70;;;11.40;99.90;;;;;;4995219;28;20189;-77
2021/12/14 13:13:54;;;;;;;36.72;16.20;;;11.50;99.90;;;;;;4978883;28;20299;-77
2021/12/14 13:16:27;;;;;;;28.85;16.55;;;11.40;99.90;;;;;;4978086;28;20170;-84
2021/12/14 13:19:11;;;;;;;35.22;18.70;;;11.60;99.90;;;;;;4978250;28;20177;-84
2021/12/14 13:21:58;;;;;;;38.50;18.02;;;11.50;99.90;;;;;;4977844;28;20166;-83
2021/12/14 13:24:29;;;;;;;30.83;15.15;;;11.50;99.90;;;;;;4978660;28;20173;-83
2021/12/14 13:27:06;;;;;;;39.38;18.55;;;11.40;99.90;;;;;;4975409;28;20717;-77
2021/12/14 13:29:50;;;;;;;29.00;16.75;;;11.40;99.90;;;;;;4976087;28;20162;-83
2021/12/14 13:32:30;;;;;;;31.30;15.52;;;11.30;99.90;;;;;;4975038;28;20162;-78
2021/12/14 13:35:08;;;;;;;29.85;15.70;;;11.40;99.90;;;;;;4974866;28;20624;-77
2021/12/14 13:37:42;;;;;;;39.38;15.35;;;11.30;99.90;;;;;;4978786;28;20189;-78
2021/12/14 13:40:23;;;;;;;33.63;16.05;;;11.40;99.90;;;;;;4987391;28;20170;-85
2021/12/14 13:43:02;;;;;;;27.88;15.73;;;11.40;99.90;;;;;;4978445;28;20845;-80
2021/12/14 13:45:36;;;;;;;35.40;16.88;;;11.40;99.90;;;;;;4980329;28;20215;-79